Low temp

Not for real navigation. The accuracy of this data is not assured See disclaimer for more information



ICAO NAME COUNTRY WIND Kt GUST Kt VIS m TEMP/DEW C BARO METAR
UEEE Jakutsk Russia 1 0 300 -43/-47 29.77 UEEE 190700Z 34001KT 0300 0250NE R23L/0800N FG VV005 M43/M47 Q1008 R23L/450155 NOSIG RMK QBB150 QFE7
CYYH Spence Bay Airport Canada 0 0 9999 -35/-40 29.86 CYYH 190700Z 00000KT 15SM IC CAVOK M35/M40 A2986 RMK FROIN SLP119
CXSE 0 0 9999 -35/-39 29.92 CXSE 190700Z AUTO 00000KT M35/M39 RMK AO1 SOG 43 1006 SLP181 T13511388
CZRP 1 0 9999 -35/-39 29.92 CZRP 190700Z AUTO 35001KT M35/M39 RMK AO1 SOG 74 3005 SLP187 T13531389
PFNO 0 0 9999 -34/0 29.62 PFNO 190656Z AUTO 00000KT 9SM CAVOK M34/ A2962 RMK AO2 SLP033 T1344 FZRANO

Show more